sensor_id;sensor_type;location;lat;lon;timestamp;pressure;altitude;pressure_sealevel;temperature;humidity
84022;BME280;74108;48.636;9.492;2023-12-07T00:00:28;98136.97;;;2.83;84.85
84022;BME280;74108;48.636;9.492;2023-12-07T00:02:53;98126.97;;;2.80;85.06
84022;BME280;74108;48.636;9.492;2023-12-07T00:05:19;98147.06;;;2.78;84.93
84022;BME280;74108;48.636;9.492;2023-12-07T00:07:44;98140.53;;;2.82;84.95
84022;BME280;74108;48.636;9.492;2023-12-07T00:10:10;98150.66;;;2.83;84.82
84022;BME280;74108;48.636;9.492;2023-12-07T00:12:35;98149.66;;;2.78;85.00
84022;BME280;74108;48.636;9.492;2023-12-07T00:15:00;98154.03;;;2.77;85.13
84022;BME280;74108;48.636;9.492;2023-12-07T00:17:28;98147.25;;;2.76;85.89
84022;BME280;74108;48.636;9.492;2023-12-07T00:19:53;98151.03;;;2.74;85.14
84022;BME280;74108;48.636;9.492;2023-12-07T00:22:19;98148.59;;;2.72;84.92
84022;BME280;74108;48.636;9.492;2023-12-07T00:24:45;98157.97;;;2.73;85.26
84022;BME280;74108;48.636;9.492;2023-12-07T00:27:11;98159.16;;;2.71;84.57
84022;BME280;74108;48.636;9.492;2023-12-07T00:29:37;98153.38;;;2.69;85.23
84022;BME280;74108;48.636;9.492;2023-12-07T00:32:04;98151.81;;;2.74;84.75
84022;BME280;74108;48.636;9.492;2023-12-07T00:34:29;98152.41;;;2.76;85.18
84022;BME280;74108;48.636;9.492;2023-12-07T00:36:54;98147.59;;;2.67;84.75
84022;BME280;74108;48.636;9.492;2023-12-07T00:39:20;98150.91;;;2.61;85.50
84022;BME280;74108;48.636;9.492;2023-12-07T00:41:45;98149.97;;;2.68;85.80
84022;BME280;74108;48.636;9.492;2023-12-07T00:44:13;98158.31;;;2.64;85.32
84022;BME280;74108;48.636;9.492;2023-12-07T00:46:40;98152.22;;;2.50;85.08
84022;BME280;74108;48.636;9.492;2023-12-07T00:49:05;98155.31;;;2.39;85.31
84022;BME280;74108;48.636;9.492;2023-12-07T00:51:30;98164.25;;;2.37;85.25
84022;BME280;74108;48.636;9.492;2023-12-07T00:53:56;98166.00;;;2.36;85.79
84022;BME280;74108;48.636;9.492;2023-12-07T00:56:21;98167.50;;;2.45;86.24
84022;BME280;74108;48.636;9.492;2023-12-07T00:58:47;98171.69;;;2.46;86.28
84022;BME280;74108;48.636;9.492;2023-12-07T01:01:12;98162.94;;;2.47;85.91
84022;BME280;74108;48.636;9.492;2023-12-07T01:03:38;98167.28;;;2.47;86.62
84022;BME280;74108;48.636;9.492;2023-12-07T01:06:06;98166.06;;;2.43;85.66
84022;BME280;74108;48.636;9.492;2023-12-07T01:08:31;98170.25;;;2.23;85.90
84022;BME280;74108;48.636;9.492;2023-12-07T01:10:57;98175.59;;;2.21;86.05
84022;BME280;74108;48.636;9.492;2023-12-07T01:13:22;98176.00;;;2.18;86.48
84022;BME280;74108;48.636;9.492;2023-12-07T01:15:49;98178.81;;;2.23;86.77
84022;BME280;74108;48.636;9.492;2023-12-07T01:18:15;98180.09;;;2.34;86.63
84022;BME280;74108;48.636;9.492;2023-12-07T01:20:40;98178.59;;;2.39;85.82
84022;BME280;74108;48.636;9.492;2023-12-07T01:23:06;98184.41;;;2.48;86.08
84022;BME280;74108;48.636;9.492;2023-12-07T01:25:34;98178.94;;;2.57;85.57
84022;BME280;74108;48.636;9.492;2023-12-07T01:27:59;98180.97;;;2.62;85.14
84022;BME280;74108;48.636;9.492;2023-12-07T01:30:24;98184.91;;;2.58;86.16
84022;BME280;74108;48.636;9.492;2023-12-07T01:32:50;98184.72;;;2.59;86.21
84022;BME280;74108;48.636;9.492;2023-12-07T01:35:15;98185.69;;;2.58;85.89
84022;BME280;74108;48.636;9.492;2023-12-07T01:37:41;98201.41;;;2.57;85.22
84022;BME280;74108;48.636;9.492;2023-12-07T01:40:07;98191.19;;;2.49;85.44
84022;BME280;74108;48.636;9.492;2023-12-07T01:42:36;98192.38;;;2.46;85.11
84022;BME280;74108;48.636;9.492;2023-12-07T01:45:02;98188.13;;;2.39;85.80
84022;BME280;74108;48.636;9.492;2023-12-07T01:47:28;98193.28;;;2.39;85.71
84022;BME280;74108;48.636;9.492;2023-12-07T01:49:54;98200.03;;;2.40;86.39
84022;BME280;74108;48.636;9.492;2023-12-07T01:52:20;98203.94;;;2.50;86.50
84022;BME280;74108;48.636;9.492;2023-12-07T01:54:48;98193.66;;;2.57;86.43
84022;BME280;74108;48.636;9.492;2023-12-07T01:57:13;98200.78;;;2.55;86.35
84022;BME280;74108;48.636;9.492;2023-12-07T01:59:39;98198.47;;;2.60;85.54
84022;BME280;74108;48.636;9.492;2023-12-07T02:02:04;98203.75;;;2.52;85.63
84022;BME280;74108;48.636;9.492;2023-12-07T02:04:30;98197.22;;;2.35;85.01
84022;BME280;74108;48.636;9.492;2023-12-07T02:06:57;98192.53;;;2.24;85.38
84022;BME280;74108;48.636;9.492;2023-12-07T02:09:25;98190.63;;;2.11;86.23
84022;BME280;74108;48.636;9.492;2023-12-07T02:11:50;98199.72;;;2.07;86.36
84022;BME280;74108;48.636;9.492;2023-12-07T02:14:15;98201.50;;;2.06;86.10
84022;BME280;74108;48.636;9.492;2023-12-07T02:16:46;98208.72;;;2.11;86.10
84022;BME280;74108;48.636;9.492;2023-12-07T02:19:31;98202.44;;;2.20;86.48
84022;BME280;74108;48.636;9.492;2023-12-07T02:22:11;98203.88;;;2.23;85.50
84022;BME280;74108;48.636;9.492;2023-12-07T02:24:38;98210.19;;;2.20;85.27
84022;BME280;74108;48.636;9.492;2023-12-07T02:27:09;98203.41;;;1.98;85.82
84022;BME280;74108;48.636;9.492;2023-12-07T02:29:34;98203.72;;;2.09;86.19
84022;BME280;74108;48.636;9.492;2023-12-07T02:31:59;98201.16;;;2.09;85.63
84022;BME280;74108;48.636;9.492;2023-12-07T02:34:25;98204.09;;;2.06;85.83
84022;BME280;74108;48.636;9.492;2023-12-07T02:36:53;98199.03;;;1.98;86.50
84022;BME280;74108;48.636;9.492;2023-12-07T02:39:20;98199.75;;;1.92;86.84
84022;BME280;74108;48.636;9.492;2023-12-07T02:41:47;98205.31;;;1.75;87.61
84022;BME280;74108;48.636;9.492;2023-12-07T02:44:14;98198.19;;;1.77;87.24
84022;BME280;74108;48.636;9.492;2023-12-07T02:46:39;98204.66;;;1.73;87.62
84022;BME280;74108;48.636;9.492;2023-12-07T02:49:04;98206.63;;;1.71;86.54
84022;BME280;74108;48.636;9.492;2023-12-07T02:51:30;98203.81;;;1.66;86.66
84022;BME280;74108;48.636;9.492;2023-12-07T02:53:55;98206.66;;;1.56;86.28
84022;BME280;74108;48.636;9.492;2023-12-07T02:56:21;98200.25;;;1.52;86.54
84022;BME280;74108;48.636;9.492;2023-12-07T02:58:46;98202.66;;;1.54;87.26
84022;BME280;74108;48.636;9.492;2023-12-07T03:01:11;98197.94;;;1.57;86.85
84022;BME280;74108;48.636;9.492;2023-12-07T03:03:37;98197.03;;;1.65;86.34
84022;BME280;74108;48.636;9.492;2023-12-07T03:06:04;98205.66;;;1.72;86.84
84022;BME280;74108;48.636;9.492;2023-12-07T03:08:29;98198.63;;;1.80;86.38
84022;BME280;74108;48.636;9.492;2023-12-07T03:10:54;98204.84;;;1.86;86.64
84022;BME280;74108;48.636;9.492;2023-12-07T03:13:20;98205.88;;;1.91;86.04
84022;BME280;74108;48.636;9.492;2023-12-07T03:15:45;98215.13;;;2.00;86.46
84022;BME280;74108;48.636;9.492;2023-12-07T03:18:10;98216.47;;;1.96;85.80
84022;BME280;74108;48.636;9.492;2023-12-07T03:20:36;98222.66;;;1.95;85.74
84022;BME280;74108;48.636;9.492;2023-12-07T03:23:01;98215.81;;;1.88;85.35
84022;BME280;74108;48.636;9.492;2023-12-07T03:25:26;98208.88;;;1.59;86.39
84022;BME280;74108;48.636;9.492;2023-12-07T03:27:52;98204.53;;;1.45;86.33
84022;BME280;74108;48.636;9.492;2023-12-07T03:30:17;98201.41;;;1.35;87.44
84022;BME280;74108;48.636;9.492;2023-12-07T03:32:42;98199.66;;;1.35;87.74
84022;BME280;74108;48.636;9.492;2023-12-07T03:35:08;98208.72;;;1.46;87.03
84022;BME280;74108;48.636;9.492;2023-12-07T03:37:33;98198.31;;;1.54;86.29
84022;BME280;74108;48.636;9.492;2023-12-07T03:39:58;98197.78;;;1.44;86.61
84022;BME280;74108;48.636;9.492;2023-12-07T03:42:24;98202.22;;;1.35;87.60
84022;BME280;74108;48.636;9.492;2023-12-07T03:44:49;98210.66;;;1.29;87.48
84022;BME280;74108;48.636;9.492;2023-12-07T03:47:14;98205.75;;;1.20;87.09
84022;BME280;74108;48.636;9.492;2023-12-07T03:49:40;98203.72;;;1.15;86.90
84022;BME280;74108;48.636;9.492;2023-12-07T03:52:06;98211.19;;;1.10;87.37
84022;BME280;74108;48.636;9.492;2023-12-07T03:54:32;98217.13;;;1.11;87.65
84022;BME280;74108;48.636;9.492;2023-12-07T03:56:57;98214.75;;;1.09;87.97
84022;BME280;74108;48.636;9.492;2023-12-07T03:59:23;98221.91;;;0.99;88.02
84022;BME280;74108;48.636;9.492;2023-12-07T04:01:48;98222.38;;;1.03;88.31
84022;BME280;74108;48.636;9.492;2023-12-07T04:04:13;98224.97;;;1.03;88.31
84022;BME280;74108;48.636;9.492;2023-12-07T04:06:39;98225.75;;;0.89;86.56
84022;BME280;74108;48.636;9.492;2023-12-07T04:09:04;98221.38;;;0.89;87.62
84022;BME280;74108;48.636;9.492;2023-12-07T04:11:30;98226.16;;;0.92;87.19
84022;BME280;74108;48.636;9.492;2023-12-07T04:13:55;98230.72;;;0.90;87.22
84022;BME280;74108;48.636;9.492;2023-12-07T04:16:20;98230.28;;;0.87;86.70
84022;BME280;74108;48.636;9.492;2023-12-07T04:18:46;98232.66;;;0.88;87.06
84022;BME280;74108;48.636;9.492;2023-12-07T04:21:11;98230.78;;;0.82;86.95
84022;BME280;74108;48.636;9.492;2023-12-07T04:23:37;98244.53;;;0.75;87.41
84022;BME280;74108;48.636;9.492;2023-12-07T04:26:02;98233.22;;;0.61;87.42
84022;BME280;74108;48.636;9.492;2023-12-07T04:28:28;98242.56;;;0.62;88.42
84022;BME280;74108;48.636;9.492;2023-12-07T04:30:53;98247.00;;;0.68;88.00
84022;BME280;74108;48.636;9.492;2023-12-07T04:33:18;98236.13;;;0.58;87.79
84022;BME280;74108;48.636;9.492;2023-12-07T04:35:44;98240.34;;;0.51;87.71
84022;BME280;74108;48.636;9.492;2023-12-07T04:38:09;98240.63;;;0.41;88.74
84022;BME280;74108;48.636;9.492;2023-12-07T04:40:35;98235.50;;;0.33;88.50
84022;BME280;74108;48.636;9.492;2023-12-07T04:43:00;98244.66;;;0.36;89.02
84022;BME280;74108;48.636;9.492;2023-12-07T04:45:26;98239.50;;;0.36;89.10
84022;BME280;74108;48.636;9.492;2023-12-07T04:47:51;98238.38;;;0.38;88.37
84022;BME280;74108;48.636;9.492;2023-12-07T04:50:16;98242.72;;;0.38;87.96
84022;BME280;74108;48.636;9.492;2023-12-07T04:52:42;98246.44;;;0.35;87.05
84022;BME280;74108;48.636;9.492;2023-12-07T04:55:07;98249.53;;;0.31;87.69
84022;BME280;74108;48.636;9.492;2023-12-07T04:57:35;98250.22;;;0.25;87.54
84022;BME280;74108;48.636;9.492;2023-12-07T05:00:02;98244.56;;;0.21;87.56
84022;BME280;74108;48.636;9.492;2023-12-07T05:02:38;98243.00;;;0.20;87.91
84022;BME280;74108;48.636;9.492;2023-12-07T05:05:04;98245.97;;;0.01;87.77
84022;BME280;74108;48.636;9.492;2023-12-07T05:07:30;98248.09;;;-0.03;87.77
84022;BME280;74108;48.636;9.492;2023-12-07T05:09:55;98258.59;;;0.19;88.70
84022;BME280;74108;48.636;9.492;2023-12-07T05:12:21;98238.47;;;0.22;88.24
84022;BME280;74108;48.636;9.492;2023-12-07T05:14:46;98243.00;;;0.20;89.03
84022;BME280;74108;48.636;9.492;2023-12-07T05:17:12;98253.19;;;0.14;89.77
84022;BME280;74108;48.636;9.492;2023-12-07T05:19:37;98243.94;;;0.19;90.17
84022;BME280;74108;48.636;9.492;2023-12-07T05:22:03;98247.28;;;0.28;89.19
84022;BME280;74108;48.636;9.492;2023-12-07T05:24:28;98247.63;;;0.25;88.44
84022;BME280;74108;48.636;9.492;2023-12-07T05:26:55;98253.72;;;0.32;87.69
84022;BME280;74108;48.636;9.492;2023-12-07T05:29:21;98256.88;;;0.11;88.04
84022;BME280;74108;48.636;9.492;2023-12-07T05:31:48;98256.53;;;0.14;88.13
84022;BME280;74108;48.636;9.492;2023-12-07T05:34:17;98259.09;;;0.14;89.29
84022;BME280;74108;48.636;9.492;2023-12-07T05:36:43;98260.31;;;-0.05;88.39
84022;BME280;74108;48.636;9.492;2023-12-07T05:39:08;98261.81;;;-0.18;88.83
84022;BME280;74108;48.636;9.492;2023-12-07T05:41:33;98262.00;;;-0.12;88.45
84022;BME280;74108;48.636;9.492;2023-12-07T05:43:59;98268.28;;;-0.22;89.04
84022;BME280;74108;48.636;9.492;2023-12-07T05:46:24;98263.47;;;-0.25;89.36
84022;BME280;74108;48.636;9.492;2023-12-07T05:48:50;98267.66;;;-0.24;89.10
84022;BME280;74108;48.636;9.492;2023-12-07T05:51:19;98271.84;;;-0.23;89.82
84022;BME280;74108;48.636;9.492;2023-12-07T05:53:45;98263.81;;;-0.36;88.12
84022;BME280;74108;48.636;9.492;2023-12-07T05:56:11;98264.97;;;-0.39;87.51
84022;BME280;74108;48.636;9.492;2023-12-07T05:58:37;98264.69;;;-0.44;88.46
84022;BME280;74108;48.636;9.492;2023-12-07T06:01:02;98264.69;;;-0.44;89.22
84022;BME280;74108;48.636;9.492;2023-12-07T06:03:28;98265.13;;;-0.40;89.56
84022;BME280;74108;48.636;9.492;2023-12-07T06:05:54;98267.41;;;-0.45;89.02
84022;BME280;74108;48.636;9.492;2023-12-07T06:08:19;98267.53;;;-0.39;87.80
84022;BME280;74108;48.636;9.492;2023-12-07T06:10:45;98267.41;;;-0.45;88.30
84022;BME280;74108;48.636;9.492;2023-12-07T06:13:10;98260.97;;;-0.49;88.96
84022;BME280;74108;48.636;9.492;2023-12-07T06:15:36;98260.66;;;-0.46;89.39
84022;BME280;74108;48.636;9.492;2023-12-07T06:18:01;98260.47;;;-0.45;87.97
84022;BME280;74108;48.636;9.492;2023-12-07T06:20:28;98259.22;;;-0.49;88.23
84022;BME280;74108;48.636;9.492;2023-12-07T06:22:53;98259.34;;;-0.50;88.15
84022;BME280;74108;48.636;9.492;2023-12-07T06:25:20;98249.06;;;-0.50;88.03
84022;BME280;74108;48.636;9.492;2023-12-07T06:27:45;98247.66;;;-0.61;86.98
84022;BME280;74108;48.636;9.492;2023-12-07T06:30:11;98253.47;;;-0.67;87.06
84022;BME280;74108;48.636;9.492;2023-12-07T06:32:36;98248.16;;;-0.65;86.87
84022;BME280;74108;48.636;9.492;2023-12-07T06:35:02;98257.94;;;-0.61;87.10
84022;BME280;74108;48.636;9.492;2023-12-07T06:37:31;98243.34;;;-0.60;87.23
84022;BME280;74108;48.636;9.492;2023-12-07T06:39:56;98248.47;;;-0.60;87.39
84022;BME280;74108;48.636;9.492;2023-12-07T06:42:22;98246.84;;;-0.61;87.51
84022;BME280;74108;48.636;9.492;2023-12-07T06:44:48;98252.66;;;-0.76;88.10
84022;BME280;74108;48.636;9.492;2023-12-07T06:47:16;98249.63;;;-0.79;88.16
84022;BME280;74108;48.636;9.492;2023-12-07T06:49:42;98252.66;;;-0.76;87.88
84022;BME280;74108;48.636;9.492;2023-12-07T06:52:07;98257.81;;;-0.76;87.21
84022;BME280;74108;48.636;9.492;2023-12-07T06:54:33;98256.22;;;-0.77;85.96
84022;BME280;74108;48.636;9.492;2023-12-07T06:56:59;98257.81;;;-0.76;87.34
84022;BME280;74108;48.636;9.492;2023-12-07T06:59:24;98251.41;;;-0.80;87.55
84022;BME280;74108;48.636;9.492;2023-12-07T07:01:50;98247.41;;;-0.90;86.29
84022;BME280;74108;48.636;9.492;2023-12-07T07:04:15;98249.16;;;-0.99;86.16
84022;BME280;74108;48.636;9.492;2023-12-07T07:06:41;98250.00;;;-1.06;86.92
84022;BME280;74108;48.636;9.492;2023-12-07T07:09:07;98243.72;;;-1.12;86.84
84022;BME280;74108;48.636;9.492;2023-12-07T07:11:32;98244.84;;;-1.14;87.80
84022;BME280;74108;48.636;9.492;2023-12-07T07:13:59;98255.94;;;-1.30;87.64
84022;BME280;74108;48.636;9.492;2023-12-07T07:16:24;98267.03;;;-1.13;90.43
84022;BME280;74108;48.636;9.492;2023-12-07T07:18:50;98254.16;;;-0.97;89.43
84022;BME280;74108;48.636;9.492;2023-12-07T07:21:15;98258.97;;;-0.94;89.33
84022;BME280;74108;48.636;9.492;2023-12-07T07:23:41;98260.25;;;-0.90;88.55
84022;BME280;74108;48.636;9.492;2023-12-07T07:26:06;98256.22;;;-0.77;88.11
84022;BME280;74108;48.636;9.492;2023-12-07T07:28:32;98261.22;;;-0.83;87.86
84022;BME280;74108;48.636;9.492;2023-12-07T07:30:57;98258.00;;;-0.77;88.58
84022;BME280;74108;48.636;9.492;2023-12-07T07:33:22;98258.47;;;-0.82;87.63
84022;BME280;74108;48.636;9.492;2023-12-07T07:35:48;98259.28;;;-0.89;87.80
84022;BME280;74108;48.636;9.492;2023-12-07T07:38:13;98260.72;;;-0.79;87.93
84022;BME280;74108;48.636;9.492;2023-12-07T07:40:39;98268.56;;;-0.56;88.50
84022;BME280;74108;48.636;9.492;2023-12-07T07:43:05;98264.38;;;-0.49;86.75
84022;BME280;74108;48.636;9.492;2023-12-07T07:45:30;98258.34;;;-0.33;86.40
84022;BME280;74108;48.636;9.492;2023-12-07T07:47:56;98264.41;;;-0.18;85.47
84022;BME280;74108;48.636;9.492;2023-12-07T07:50:21;98265.19;;;-0.10;85.94
84022;BME280;74108;48.636;9.492;2023-12-07T07:52:47;98264.94;;;0.08;86.18
84022;BME280;74108;48.636;9.492;2023-12-07T07:55:12;98262.38;;;0.39;85.00
84022;BME280;74108;48.636;9.492;2023-12-07T07:57:38;98261.75;;;0.59;83.34
84022;BME280;74108;48.636;9.492;2023-12-07T08:00:04;98254.84;;;0.75;82.90
84022;BME280;74108;48.636;9.492;2023-12-07T08:02:34;98247.94;;;1.12;81.24
84022;BME280;74108;48.636;9.492;2023-12-07T08:04:59;98251.94;;;1.15;81.32
84022;BME280;74108;48.636;9.492;2023-12-07T08:07:25;98268.09;;;1.46;80.82
84022;BME280;74108;48.636;9.492;2023-12-07T08:09:50;98258.91;;;1.73;80.13
84022;BME280;74108;48.636;9.492;2023-12-07T08:12:15;98252.91;;;2.01;78.84
84022;BME280;74108;48.636;9.492;2023-12-07T08:14:41;98255.34;;;2.24;78.56
84022;BME280;74108;48.636;9.492;2023-12-07T08:17:09;98252.06;;;2.51;77.88
84022;BME280;74108;48.636;9.492;2023-12-07T08:19:34;98246.53;;;2.75;77.13
84022;BME280;74108;48.636;9.492;2023-12-07T08:22:00;98246.94;;;3.00;75.90
84022;BME280;74108;48.636;9.492;2023-12-07T08:24:25;98241.94;;;3.20;74.97
84022;BME280;74108;48.636;9.492;2023-12-07T08:26:50;98256.91;;;3.24;74.67
84022;BME280;74108;48.636;9.492;2023-12-07T08:29:16;98255.81;;;3.40;74.24
84022;BME280;74108;48.636;9.492;2023-12-07T08:31:41;98261.06;;;3.53;74.06
84022;BME280;74108;48.636;9.492;2023-12-07T08:34:06;98254.00;;;3.75;73.02
84022;BME280;74108;48.636;9.492;2023-12-07T08:36:32;98255.16;;;3.66;72.80
84022;BME280;74108;48.636;9.492;2023-12-07T08:38:57;98244.47;;;3.82;71.98
84022;BME280;74108;48.636;9.492;2023-12-07T08:41:22;98246.28;;;3.81;73.35
84022;BME280;74108;48.636;9.492;2023-12-07T08:43:48;98250.34;;;4.03;73.06
84022;BME280;74108;48.636;9.492;2023-12-07T08:46:14;98244.44;;;4.29;70.81
84022;BME280;74108;48.636;9.492;2023-12-07T08:48:39;98254.06;;;4.35;70.59
84022;BME280;74108;48.636;9.492;2023-12-07T08:51:05;98252.31;;;4.49;70.17
84022;BME280;74108;48.636;9.492;2023-12-07T08:53:30;98250.53;;;4.56;68.64
84022;BME280;74108;48.636;9.492;2023-12-07T08:55:55;98252.72;;;4.65;68.71
84022;BME280;74108;48.636;9.492;2023-12-07T08:58:21;98260.53;;;4.72;68.00
84022;BME280;74108;48.636;9.492;2023-12-07T09:00:46;98250.16;;;5.11;67.47
84022;BME280;74108;48.636;9.492;2023-12-07T09:03:12;98252.97;;;4.90;68.59
84022;BME280;74108;48.636;9.492;2023-12-07T09:05:37;98255.56;;;4.83;68.55
84022;BME280;74108;48.636;9.492;2023-12-07T09:08:03;98255.13;;;4.60;68.90
84022;BME280;74108;48.636;9.492;2023-12-07T09:10:28;98250.75;;;4.74;68.24
84022;BME280;74108;48.636;9.492;2023-12-07T09:12:54;98245.94;;;4.77;67.91
84022;BME280;74108;48.636;9.492;2023-12-07T09:15:19;98241.34;;;4.66;68.88
84022;BME280;74108;48.636;9.492;2023-12-07T09:17:45;98234.19;;;5.01;67.32
84022;BME280;74108;48.636;9.492;2023-12-07T09:20:11;98244.16;;;5.17;66.14
84022;BME280;74108;48.636;9.492;2023-12-07T09:22:43;98242.16;;;5.19;66.64
84022;BME280;74108;48.636;9.492;2023-12-07T09:25:08;98242.94;;;5.39;65.90
84022;BME280;74108;48.636;9.492;2023-12-07T09:27:35;98233.84;;;5.81;63.81
84022;BME280;74108;48.636;9.492;2023-12-07T09:30:06;98220.22;;;5.92;64.73
84022;BME280;74108;48.636;9.492;2023-12-07T09:32:32;98224.75;;;6.16;64.66
84022;BME280;74108;48.636;9.492;2023-12-07T09:35:07;98224.69;;;6.23;62.96
84022;BME280;74108;48.636;9.492;2023-12-07T09:37:33;98205.16;;;6.45;63.27
84022;BME280;74108;48.636;9.492;2023-12-07T09:40:00;98200.63;;;6.65;61.44
84022;BME280;74108;48.636;9.492;2023-12-07T09:42:26;98198.06;;;6.59;61.68
84022;BME280;74108;48.636;9.492;2023-12-07T09:44:52;98198.94;;;6.46;62.53
84022;BME280;74108;48.636;9.492;2023-12-07T09:47:17;98197.34;;;6.76;61.34
84022;BME280;74108;48.636;9.492;2023-12-07T09:49:43;98207.81;;;6.94;60.51
84022;BME280;74108;48.636;9.492;2023-12-07T09:52:10;98199.19;;;6.94;59.99
84022;BME280;74108;48.636;9.492;2023-12-07T09:54:40;98202.19;;;6.97;59.64
84022;BME280;74108;48.636;9.492;2023-12-07T09:57:05;98195.28;;;7.28;57.54
84022;BME280;74108;48.636;9.492;2023-12-07T09:59:31;98194.06;;;7.48;57.80
84022;BME280;74108;48.636;9.492;2023-12-07T10:01:56;98191.03;;;7.33;56.85
84022;BME280;74108;48.636;9.492;2023-12-07T10:04:22;98186.31;;;7.24;59.26
84022;BME280;74108;48.636;9.492;2023-12-07T10:06:51;98192.81;;;7.33;59.02
84022;BME280;74108;48.636;9.492;2023-12-07T10:09:17;98184.97;;;7.57;59.03
84022;BME280;74108;48.636;9.492;2023-12-07T10:12:04;98181.97;;;7.36;59.17
84022;BME280;74108;48.636;9.492;2023-12-07T10:14:31;98176.91;;;7.23;59.63
84022;BME280;74108;48.636;9.492;2023-12-07T10:16:56;98172.75;;;7.15;60.31
84022;BME280;74108;48.636;9.492;2023-12-07T10:19:22;98175.03;;;7.30;59.62
84022;BME280;74108;48.636;9.492;2023-12-07T10:21:49;98161.94;;;7.54;57.38
84022;BME280;74108;48.636;9.492;2023-12-07T10:24:21;98154.53;;;7.51;57.91
84022;BME280;74108;48.636;9.492;2023-12-07T10:26:48;98156.75;;;7.84;55.80
84022;BME280;74108;48.636;9.492;2023-12-07T10:29:14;98142.94;;;7.65;56.83
84022;BME280;74108;48.636;9.492;2023-12-07T10:31:39;98133.97;;;7.43;56.86
84022;BME280;74108;48.636;9.492;2023-12-07T10:34:05;98143.94;;;7.64;57.39
84022;BME280;74108;48.636;9.492;2023-12-07T10:36:31;98139.03;;;7.56;58.06
84022;BME280;74108;48.636;9.492;2023-12-07T10:38:58;98140.69;;;7.69;58.08
84022;BME280;74108;48.636;9.492;2023-12-07T10:41:25;98130.91;;;7.64;57.76
84022;BME280;74108;48.636;9.492;2023-12-07T10:44:01;98129.25;;;7.70;56.92
84022;BME280;74108;48.636;9.492;2023-12-07T10:46:29;98114.69;;;7.92;55.93
84022;BME280;74108;48.636;9.492;2023-12-07T10:49:04;98111.88;;;7.94;56.63
84022;BME280;74108;48.636;9.492;2023-12-07T10:51:37;98117.84;;;8.42;54.78
84022;BME280;74108;48.636;9.492;2023-12-07T10:54:06;98116.25;;;8.11;55.86
84022;BME280;74108;48.636;9.492;2023-12-07T10:56:44;98107.19;;;8.14;55.71
84022;BME280;74108;48.636;9.492;2023-12-07T10:59:10;98114.16;;;8.31;54.46
84022;BME280;74108;48.636;9.492;2023-12-07T11:01:40;98108.66;;;8.51;54.09
84022;BME280;74108;48.636;9.492;2023-12-07T11:04:11;98109.34;;;8.58;54.53
84022;BME280;74108;48.636;9.492;2023-12-07T11:06:37;98113.09;;;8.74;52.45
84022;BME280;74108;48.636;9.492;2023-12-07T11:09:09;98115.22;;;8.42;53.57
84022;BME280;74108;48.636;9.492;2023-12-07T11:14:11;98109.25;;;8.23;54.67
84022;BME280;74108;48.636;9.492;2023-12-07T11:16:40;98103.41;;;7.98;55.33
84022;BME280;74108;48.636;9.492;2023-12-07T11:22:02;98086.38;;;8.37;51.00
84022;BME280;74108;48.636;9.492;2023-12-07T11:24:29;98081.88;;;8.56;49.43
84022;BME280;74108;48.636;9.492;2023-12-07T11:26:58;98071.84;;;8.29;50.43
84022;BME280;74108;48.636;9.492;2023-12-07T11:29:30;98065.50;;;8.60;48.99
84022;BME280;74108;48.636;9.492;2023-12-07T11:31:59;98069.69;;;8.61;49.72
84022;BME280;74108;48.636;9.492;2023-12-07T11:34:38;98058.13;;;8.80;49.15
84022;BME280;74108;48.636;9.492;2023-12-07T11:37:04;98059.84;;;8.75;50.49
84022;BME280;74108;48.636;9.492;2023-12-07T11:39:35;98054.81;;;8.85;49.22
84022;BME280;74108;48.636;9.492;2023-12-07T11:42:10;98045.94;;;9.09;47.20
84022;BME280;74108;48.636;9.492;2023-12-07T11:44:43;98046.38;;;9.06;48.05
84022;BME280;74108;48.636;9.492;2023-12-07T11:47:16;98039.34;;;9.06;48.08
84022;BME280;74108;48.636;9.492;2023-12-07T11:49:43;98032.31;;;9.07;47.12
84022;BME280;74108;48.636;9.492;2023-12-07T11:54:40;98029.94;;;8.82;47.95
84022;BME280;74108;48.636;9.492;2023-12-07T11:57:05;98022.16;;;9.10;46.72
84022;BME280;74108;48.636;9.492;2023-12-07T11:59:31;98016.00;;;9.16;46.93
84022;BME280;74108;48.636;9.492;2023-12-07T12:01:59;98011.66;;;8.82;47.35
84022;BME280;74108;48.636;9.492;2023-12-07T12:04:24;98012.91;;;8.33;44.42
84022;BME280;74108;48.636;9.492;2023-12-07T12:06:49;98010.50;;;7.67;44.49
84022;BME280;74108;48.636;9.492;2023-12-07T12:09:15;98006.44;;;7.71;45.06
84022;BME280;74108;48.636;9.492;2023-12-07T12:11:45;98005.94;;;7.93;45.47
84022;BME280;74108;48.636;9.492;2023-12-07T12:14:18;97995.19;;;8.01;47.08
84022;BME280;74108;48.636;9.492;2023-12-07T12:16:45;97983.38;;;7.98;43.78
84022;BME280;74108;48.636;9.492;2023-12-07T12:19:11;97975.09;;;8.13;43.59
84022;BME280;74108;48.636;9.492;2023-12-07T12:21:37;97979.97;;;8.09;44.53
84022;BME280;74108;48.636;9.492;2023-12-07T12:24:06;97965.38;;;8.31;44.74
84022;BME280;74108;48.636;9.492;2023-12-07T12:26:35;97965.47;;;8.48;41.62
84022;BME280;74108;48.636;9.492;2023-12-07T12:29:05;97963.00;;;8.30;41.74
84022;BME280;74108;48.636;9.492;2023-12-07T12:31:32;97958.00;;;8.28;42.43
84022;BME280;74108;48.636;9.492;2023-12-07T12:33:57;97959.59;;;8.29;44.31
84022;BME280;74108;48.636;9.492;2023-12-07T12:36:23;97964.31;;;7.98;42.68
84022;BME280;74108;48.636;9.492;2023-12-07T12:38:52;97952.16;;;7.80;43.86
84022;BME280;74108;48.636;9.492;2023-12-07T12:41:21;97958.50;;;7.72;44.89
84022;BME280;74108;48.636;9.492;2023-12-07T12:43:47;97952.72;;;7.29;44.32
84022;BME280;74108;48.636;9.492;2023-12-07T12:46:14;97955.50;;;6.98;45.26
84022;BME280;74108;48.636;9.492;2023-12-07T12:48:59;97948.28;;;6.82;46.89
84022;BME280;74108;48.636;9.492;2023-12-07T12:51:29;97953.97;;;6.61;46.60
84022;BME280;74108;48.636;9.492;2023-12-07T12:53:58;97949.84;;;6.53;46.67
84022;BME280;74108;48.636;9.492;2023-12-07T12:56:26;97941.00;;;6.54;47.59
84022;BME280;74108;48.636;9.492;2023-12-07T12:58:52;97938.19;;;6.56;47.53
84022;BME280;74108;48.636;9.492;2023-12-07T13:01:18;97935.69;;;6.24;45.81
84022;BME280;74108;48.636;9.492;2023-12-07T13:03:46;97938.09;;;6.26;45.48
84022;BME280;74108;48.636;9.492;2023-12-07T13:06:15;97925.16;;;6.19;48.27
84022;BME280;74108;48.636;9.492;2023-12-07T13:08:44;97929.50;;;6.25;44.72
84022;BME280;74108;48.636;9.492;2023-12-07T13:11:17;97928.69;;;6.25;44.55
84022;BME280;74108;48.636;9.492;2023-12-07T13:13:44;97925.50;;;6.05;44.05